createdAt,value
2022-10-09T00:04:23.609Z,100988.90
2022-10-09T00:09:29.647Z,100996.72
2022-10-09T00:14:35.471Z,101000.59
2022-10-09T00:19:41.238Z,101012.20
2022-10-09T00:24:46.955Z,101017.22
2022-10-09T00:29:52.762Z,101019.34
2022-10-09T00:34:58.695Z,101022.94
2022-10-09T00:40:05.425Z,101019.27
2022-10-09T00:45:20.093Z,101015.52
2022-10-09T00:50:28.171Z,101009.14
2022-10-09T00:55:38.022Z,101003.85
2022-10-09T01:00:43.824Z,101009.67
2022-10-09T01:06:00.551Z,101020.42
2022-10-09T01:11:18.198Z,101030.29
2022-10-09T01:16:29.207Z,101038.10
2022-10-09T01:21:36.279Z,101033.46
2022-10-09T01:27:09.653Z,101039.02
2022-10-09T01:32:21.129Z,101047.77
2022-10-09T01:37:28.543Z,101056.33
2022-10-09T01:42:34.508Z,101057.63
2022-10-09T01:47:40.405Z,101060.09
2022-10-09T01:52:50.440Z,101065.48
2022-10-09T01:58:05.511Z,101070.23
2022-10-09T02:03:15.617Z,101073.73
2022-10-09T02:08:24.280Z,101076.55
2022-10-09T02:13:31.269Z,101082.80
2022-10-09T02:18:40.863Z,101091.38
2022-10-09T02:23:49.871Z,101097.30
2022-10-09T02:28:57.362Z,101099.34
2022-10-09T02:34:05.575Z,101097.45
2022-10-09T02:39:11.805Z,101106.30
2022-10-09T02:44:18.291Z,101116.56
2022-10-09T02:49:24.621Z,101125.77
2022-10-09T02:54:30.317Z,101129.41
2022-10-09T02:59:36.073Z,101136.09
2022-10-09T03:04:41.841Z,101139.80
2022-10-09T03:09:47.566Z,101155.71
2022-10-09T03:14:53.342Z,101161.92
2022-10-09T03:19:59.730Z,101158.52
2022-10-09T03:25:06.574Z,101159.27
2022-10-09T03:30:13.943Z,101169.42
2022-10-09T03:35:19.896Z,101180.14
2022-10-09T03:40:25.941Z,101185.38
2022-10-09T03:45:31.996Z,101188.09
2022-10-09T03:50:39.308Z,101193.75
2022-10-09T03:55:45.236Z,101194.60
2022-10-09T04:00:53.152Z,101200.62
2022-10-09T04:05:59.305Z,101207.98
2022-10-09T04:11:05.144Z,101208.27
2022-10-09T04:16:12.911Z,101211.87
2022-10-09T04:21:18.984Z,101213.26
2022-10-09T04:26:24.886Z,101214.95
2022-10-09T04:31:30.896Z,101220.36
2022-10-09T04:36:36.990Z,101223.50
2022-10-09T04:41:42.631Z,101227.83
2022-10-09T04:46:49.638Z,101236.31
2022-10-09T04:51:55.601Z,101239.80
2022-10-09T04:57:01.520Z,101251.81
2022-10-09T05:02:08.014Z,101258.44
2022-10-09T05:07:18.315Z,101269.20
2022-10-09T05:12:27.303Z,101272.33
2022-10-09T05:17:33.218Z,101264.58
2022-10-09T05:22:39.042Z,101279.83
2022-10-09T05:27:44.905Z,101293.50
2022-10-09T05:32:50.960Z,101301.48
2022-10-09T05:37:57.183Z,101309.77
2022-10-09T05:43:03.095Z,101316.66
2022-10-09T05:48:08.877Z,101322.02
2022-10-09T05:53:14.638Z,101331.71
2022-10-09T05:58:20.382Z,101345.55
2022-10-09T06:03:26.187Z,101350.91
2022-10-09T06:08:34.031Z,101356.77
2022-10-09T06:13:39.817Z,101360.94
2022-10-09T06:18:49.234Z,101374.13
2022-10-09T06:23:57.891Z,101379.44
2022-10-09T06:29:03.921Z,101383.17
2022-10-09T06:34:11.365Z,101392.34
2022-10-09T06:39:17.579Z,101400.16
2022-10-09T06:44:23.830Z,101413.98
2022-10-09T06:49:29.717Z,101423.45
2022-10-09T06:54:35.743Z,101433.64
2022-10-09T07:12:20.354Z,101459.82
2022-10-09T07:17:26.346Z,101465.33
2022-10-09T07:22:32.113Z,101471.47
2022-10-09T07:27:37.942Z,101477.41
2022-10-09T07:32:43.846Z,101479.60
2022-10-09T07:37:52.046Z,101489.20
2022-10-09T07:42:58.197Z,101493.45
2022-10-09T07:48:04.051Z,101495.36
2022-10-09T07:53:09.931Z,101499.09
2022-10-09T07:58:16.268Z,101500.37
2022-10-09T08:03:22.342Z,101504.98
2022-10-09T08:08:30.405Z,101513.65
2022-10-09T08:13:36.973Z,101519.55
2022-10-09T08:18:42.903Z,101527.30
2022-10-09T08:23:51.978Z,101535.30
2022-10-09T08:28:59.649Z,101538.23
2022-10-09T08:34:05.431Z,101555.23
2022-10-09T08:39:11.422Z,101561.65
2022-10-09T08:44:22.227Z,101565.04
2022-10-09T08:49:33.163Z,101568.02
2022-10-09T08:54:39.917Z,101577.33
2022-10-09T08:59:46.090Z,101582.69
2022-10-09T09:05:08.849Z,101581.86
2022-10-09T09:10:22.168Z,101583.21
2022-10-09T09:15:45.023Z,101582.08
2022-10-09T09:20:54.435Z,101577.74
2022-10-09T09:26:01.168Z,101579.83
2022-10-09T09:31:14.588Z,101587.91
2022-10-09T09:36:25.179Z,101588.86
2022-10-09T09:41:31.282Z,101588.38
2022-10-09T09:46:37.922Z,101592.66
2022-10-09T09:51:44.250Z,101596.28
2022-10-09T09:57:12.062Z,101601.52
2022-10-09T10:02:21.144Z,101607.05
2022-10-09T10:07:32.846Z,101611.87
2022-10-09T10:12:43.820Z,101618.89
2022-10-09T10:17:54.975Z,101623.02
2022-10-09T10:23:01.753Z,101626.46
2022-10-09T10:28:16.688Z,101623.22
2022-10-09T10:33:26.989Z,101624.19
2022-10-09T10:38:37.094Z,101631.17
2022-10-09T10:43:48.306Z,101634.29
2022-10-09T10:48:54.542Z,101639.29
2022-10-09T10:54:11.414Z,101646.45
2022-10-09T10:59:35.841Z,101647.11
2022-10-09T11:04:54.676Z,101652.08
2022-10-09T11:10:09.297Z,101659.55
2022-10-09T11:15:26.042Z,101657.59
2022-10-09T11:20:54.744Z,101655.64
2022-10-09T11:26:11.929Z,101651.80
2022-10-09T11:31:24.624Z,101647.02
2022-10-09T11:36:39.286Z,101647.67
2022-10-09T11:41:47.772Z,101646.92
2022-10-09T11:47:01.859Z,101647.27
2022-10-09T11:52:18.306Z,101653.29
2022-10-09T11:57:33.503Z,101649.21
2022-10-09T12:02:40.519Z,101653.45
2022-10-09T12:07:46.449Z,101653.80
2022-10-09T12:13:01.925Z,101653.62
2022-10-09T12:18:22.159Z,101651.92
2022-10-09T12:23:33.250Z,101651.92
2022-10-09T12:28:44.958Z,101654.11
2022-10-09T12:33:54.958Z,101652.95
2022-10-09T12:39:15.064Z,101651.88
2022-10-09T12:44:30.253Z,101647.17
2022-10-09T12:49:36.525Z,101641.09
2022-10-09T12:54:44.479Z,101644.48
2022-10-09T12:59:51.437Z,101649.11
2022-10-09T13:05:00.382Z,101649.66
2022-10-09T13:10:17.293Z,101654.17
2022-10-09T13:15:33.540Z,101651.55
2022-10-09T13:20:39.562Z,101654.19
2022-10-09T13:25:45.725Z,101651.64
2022-10-09T13:30:51.537Z,101653.14
2022-10-09T13:35:57.437Z,101652.19
2022-10-09T13:41:03.541Z,101648.16
2022-10-09T13:46:09.736Z,101641.04
2022-10-09T13:51:15.619Z,101639.15
2022-10-09T13:56:21.438Z,101643.45
2022-10-09T14:01:27.527Z,101640.19
2022-10-09T14:06:36.538Z,101642.52
2022-10-09T14:11:43.283Z,101644.02
2022-10-09T14:16:50.725Z,101643.66
2022-10-09T14:21:57.556Z,101646.98
2022-10-09T14:27:03.688Z,101648.04
2022-10-09T14:32:09.613Z,101641.94
2022-10-09T14:37:29.748Z,101645.27
2022-10-09T14:42:41.626Z,101644.60
2022-10-09T14:47:47.527Z,101644.83
2022-10-09T14:52:53.269Z,101638.95
2022-10-09T14:57:59.145Z,101642.58
2022-10-09T15:03:04.865Z,101646.55
2022-10-09T15:08:10.603Z,101650.41
2022-10-09T15:13:16.475Z,101655.33
2022-10-09T15:18:22.154Z,101656.39
2022-10-09T15:23:28.524Z,101658.23
2022-10-09T15:28:34.871Z,101653.95
2022-10-09T15:33:40.693Z,101653.56
2022-10-09T15:38:46.412Z,101655.92
2022-10-09T15:43:54.105Z,101660.94
2022-10-09T15:49:00.242Z,101668.85
2022-10-09T15:54:06.734Z,101675.70
2022-10-09T15:59:14.310Z,101672.77
2022-10-09T16:04:20.202Z,101677.48
2022-10-09T16:09:26.026Z,101683.91
2022-10-09T16:19:50.004Z,101687.44
2022-10-09T16:24:53.006Z,101697.40
2022-10-09T16:29:56.323Z,101701.08
2022-10-09T16:34:59.586Z,101706.48
2022-10-09T16:40:02.754Z,101713.25
2022-10-09T16:45:08.443Z,101710.80
2022-10-09T16:50:11.703Z,101711.84
2022-10-09T16:55:15.173Z,101711.98
2022-10-09T17:00:19.445Z,101716.56
2022-10-09T17:05:25.944Z,101719.81
2022-10-09T17:10:29.054Z,101722.73
2022-10-09T17:15:32.273Z,101718.20
2022-10-09T17:20:36.789Z,101720.89
2022-10-09T17:25:42.310Z,101729.80
2022-10-09T17:30:45.535Z,101731.59
2022-10-09T17:35:48.510Z,101742.61
2022-10-09T17:40:52.396Z,101744.27
2022-10-09T17:45:55.405Z,101742.38
2022-10-09T17:50:59.670Z,101749.02
2022-10-09T17:56:03.770Z,101756.59
2022-10-09T18:01:08.135Z,101761.41
2022-10-09T18:06:13.530Z,101760.93
2022-10-09T18:11:17.086Z,101757.12
2022-10-09T18:16:24.288Z,101751.98
2022-10-09T18:21:27.409Z,101750.42
2022-10-09T18:26:35.389Z,101757.23
2022-10-09T18:31:38.833Z,101759.80
2022-10-09T18:36:42.217Z,101766.55
2022-10-09T18:41:45.770Z,101766.55
2022-10-09T18:46:51.111Z,101766.78
2022-10-09T18:51:55.675Z,101772.77
2022-10-09T18:56:58.973Z,101777.55
2022-10-09T19:02:02.097Z,101778.50
2022-10-09T19:07:05.494Z,101789.33
2022-10-09T19:12:08.727Z,101795.25
2022-10-09T19:17:12.382Z,101795.14
2022-10-09T19:22:20.007Z,101798.14
2022-10-09T19:27:26.857Z,101794.63
2022-10-09T19:32:30.289Z,101799.75
2022-10-09T19:37:33.347Z,101799.44
2022-10-09T19:42:36.457Z,101806.51
2022-10-09T19:47:39.707Z,101803.25
2022-10-09T19:54:40.016Z,101806.34
2022-10-09T19:59:45.751Z,101809.37
2022-10-09T20:04:51.651Z,101811.45
2022-10-09T20:09:57.778Z,101814.42
2022-10-09T20:15:04.017Z,101815.50
2022-10-09T20:20:10.871Z,101818.70
2022-10-09T20:25:17.862Z,101818.76
2022-10-09T20:30:23.866Z,101817.92
2022-10-09T20:35:29.774Z,101821.91
2022-10-09T20:40:35.697Z,101818.97
2022-10-09T20:45:42.513Z,101822.64
2022-10-09T20:50:48.238Z,101823.74
2022-10-09T20:55:53.947Z,101823.44
2022-10-09T21:00:59.855Z,101821.77
2022-10-09T21:06:07.529Z,101822.72
2022-10-09T21:11:16.886Z,101827.38
2022-10-09T21:16:24.443Z,101824.40
2022-10-09T21:21:31.378Z,101826.94
2022-10-09T21:26:37.844Z,101825.50
2022-10-09T21:31:43.779Z,101823.30
2022-10-09T21:42:18.696Z,101822.20
2022-10-09T21:47:25.334Z,101819.75
2022-10-09T21:52:31.203Z,101821.54
2022-10-09T21:57:36.922Z,101819.02
2022-10-09T22:02:42.791Z,101822.13
2022-10-09T22:07:48.433Z,101817.23
2022-10-09T22:12:54.205Z,101814.14
2022-10-09T22:17:59.950Z,101822.38
2022-10-09T22:23:05.727Z,101822.02
2022-10-09T22:28:11.553Z,101826.11
2022-10-09T22:33:17.250Z,101832.65
2022-10-09T22:38:22.972Z,101836.27
2022-10-09T22:43:29.021Z,101836.60
2022-10-09T22:48:35.151Z,101841.27
2022-10-09T22:53:41.927Z,101839.89
2022-10-09T22:58:48.934Z,101841.40
2022-10-09T23:03:54.632Z,101840.81
2022-10-09T23:09:00.575Z,101839.66
2022-10-09T23:14:07.305Z,101839.83
2022-10-09T23:19:18.980Z,101840.03
2022-10-09T23:24:24.967Z,101836.77
2022-10-09T23:29:30.738Z,101830.55
2022-10-09T23:34:36.425Z,101829.58
2022-10-09T23:39:42.100Z,101824.87
2022-10-09T23:44:47.880Z,101822.00
2022-10-09T23:49:53.723Z,101818.95
2022-10-09T23:54:59.514Z,101816.16
